createdAt,value
2022-11-17T00:02:16.832Z,13.30
2022-11-17T00:04:44.472Z,12.97
2022-11-17T00:07:11.060Z,12.07
2022-11-17T00:09:37.705Z,14.87
2022-11-17T00:12:23.198Z,12.47
2022-11-17T00:14:49.817Z,12.67
2022-11-17T00:17:16.372Z,13.30
2022-11-17T00:20:01.571Z,13.90
2022-11-17T00:22:30.150Z,13.53
2022-11-17T00:24:56.618Z,12.80
2022-11-17T00:27:23.130Z,13.77
2022-11-17T00:29:49.792Z,16.33
2022-11-17T00:32:35.623Z,13.57
2022-11-17T00:35:02.581Z,13.70
2022-11-17T00:37:30.024Z,14.50
2022-11-17T00:40:00.495Z,14.20
2022-11-17T00:42:27.561Z,16.93
2022-11-17T00:44:54.075Z,18.17
2022-11-17T00:47:20.611Z,17.10
2022-11-17T00:49:47.098Z,17.43
2022-11-17T00:52:13.621Z,19.97
2022-11-17T00:54:40.242Z,18.30
2022-11-17T00:57:06.736Z,17.67
2022-11-17T00:59:33.240Z,17.90
2022-11-17T01:01:59.793Z,20.80
2022-11-17T01:04:26.302Z,19.37
2022-11-17T01:06:52.860Z,20.90
2022-11-17T01:09:20.470Z,17.40
2022-11-17T01:11:47.881Z,17.70
2022-11-17T01:14:16.199Z,22.30
2022-11-17T01:16:43.077Z,19.73
2022-11-17T01:19:10.439Z,19.67
2022-11-17T01:21:37.010Z,20.47
2022-11-17T01:24:03.703Z,19.07
2022-11-17T01:26:31.834Z,22.07
2022-11-17T01:28:58.734Z,20.40
2022-11-17T01:31:29.800Z,21.20
2022-11-17T01:33:56.453Z,19.83
2022-11-17T01:36:22.966Z,21.57
2022-11-17T01:38:49.651Z,23.27
2022-11-17T01:41:17.585Z,20.70
2022-11-17T01:43:45.515Z,20.33
2022-11-17T01:46:20.033Z,21.90
2022-11-17T01:48:47.186Z,21.80
2022-11-17T01:51:14.594Z,18.53
2022-11-17T01:53:42.828Z,19.07
2022-11-17T01:56:11.090Z,17.33
2022-11-17T01:58:41.467Z,22.10
2022-11-17T02:01:08.023Z,21.30
2022-11-17T02:03:36.366Z,19.53
2022-11-17T02:06:03.153Z,17.93
2022-11-17T02:08:32.142Z,17.70
2022-11-17T02:11:00.696Z,18.60
2022-11-17T02:13:27.748Z,16.90
2022-11-17T02:15:54.294Z,20.23
2022-11-17T02:18:20.854Z,19.10
2022-11-17T02:20:53.374Z,16.87
2022-11-17T02:23:38.511Z,18.13
2022-11-17T02:26:08.048Z,18.70
2022-11-17T02:28:36.090Z,18.20
2022-11-17T02:31:05.610Z,17.43
2022-11-17T02:33:55.814Z,18.87
2022-11-17T02:36:36.866Z,19.20
2022-11-17T02:39:18.331Z,17.00
2022-11-17T02:41:47.861Z,18.50
2022-11-17T02:44:22.910Z,18.83
2022-11-17T02:46:49.399Z,21.17
2022-11-17T02:49:36.343Z,22.57
2022-11-17T02:52:03.831Z,20.40
2022-11-17T02:54:31.739Z,20.53
2022-11-17T02:56:58.392Z,20.00
2022-11-17T02:59:35.252Z,19.00
2022-11-17T03:02:13.215Z,19.67
2022-11-17T03:04:47.733Z,21.63
2022-11-17T03:07:34.518Z,19.53
2022-11-17T03:10:19.686Z,22.40
2022-11-17T03:12:58.296Z,19.93
2022-11-17T03:15:24.899Z,20.63
2022-11-17T03:18:01.426Z,19.77
2022-11-17T03:20:34.083Z,22.00
2022-11-17T03:23:30.110Z,21.67
2022-11-17T03:25:58.598Z,19.47
2022-11-17T03:28:27.355Z,21.17
2022-11-17T03:30:54.097Z,21.17
2022-11-17T03:33:22.584Z,18.83
2022-11-17T03:35:52.432Z,18.40
2022-11-17T03:38:20.621Z,19.97
2022-11-17T03:40:50.304Z,20.43
2022-11-17T03:43:18.749Z,21.07
2022-11-17T03:45:48.430Z,19.63
2022-11-17T03:48:17.787Z,20.00
2022-11-17T03:50:47.038Z,20.50
2022-11-17T03:53:13.725Z,18.47
2022-11-17T03:56:00.454Z,19.07
2022-11-17T03:58:29.011Z,18.70
2022-11-17T04:00:56.549Z,19.73
2022-11-17T04:03:23.314Z,18.10
2022-11-17T04:05:49.811Z,22.00
2022-11-17T04:08:16.832Z,17.67
2022-11-17T04:11:01.930Z,18.43
2022-11-17T04:13:47.084Z,20.10
2022-11-17T04:16:13.660Z,19.93
2022-11-17T04:18:40.112Z,19.00
2022-11-17T04:21:06.548Z,18.43
2022-11-17T04:23:33.178Z,18.73
2022-11-17T04:26:18.900Z,17.03
2022-11-17T04:28:46.780Z,21.47
2022-11-17T04:31:20.822Z,17.43
2022-11-17T04:33:48.426Z,18.90
2022-11-17T04:36:17.680Z,17.00
2022-11-17T04:38:45.316Z,18.23
2022-11-17T04:41:31.134Z,16.77
2022-11-17T04:43:57.855Z,16.87
2022-11-17T04:46:25.039Z,18.50
2022-11-17T04:48:52.592Z,14.87
2022-11-17T04:51:19.216Z,14.83
2022-11-17T04:53:45.735Z,14.73
2022-11-17T04:56:13.218Z,15.57
2022-11-17T04:58:40.023Z,16.13
2022-11-17T05:01:12.698Z,18.27
2022-11-17T05:03:43.251Z,16.80
2022-11-17T05:06:10.758Z,16.47
2022-11-17T05:08:37.832Z,14.23
2022-11-17T05:11:23.592Z,16.17
2022-11-17T05:13:50.968Z,15.27
2022-11-17T05:16:36.418Z,15.20
2022-11-17T05:19:03.535Z,13.63
2022-11-17T05:21:30.054Z,13.30
2022-11-17T05:23:56.617Z,13.63
2022-11-17T05:26:24.945Z,16.57
2022-11-17T05:28:51.766Z,13.73
2022-11-17T05:31:18.722Z,12.73
2022-11-17T05:33:45.280Z,14.20
2022-11-17T05:36:12.093Z,14.13
2022-11-17T05:38:38.783Z,14.33
2022-11-17T05:41:05.593Z,13.13
2022-11-17T05:43:32.309Z,12.40
2022-11-17T05:45:58.976Z,12.13
2022-11-17T05:48:25.614Z,13.50
2022-11-17T05:50:55.531Z,14.50
2022-11-17T05:53:22.891Z,12.53
2022-11-17T05:55:49.822Z,13.30
2022-11-17T05:58:22.483Z,12.60
2022-11-17T06:00:49.432Z,11.50
2022-11-17T06:03:18.490Z,12.50
2022-11-17T06:05:45.007Z,13.77
2022-11-17T06:08:11.489Z,12.97
2022-11-17T06:10:38.031Z,12.77
2022-11-17T06:13:04.547Z,12.83
2022-11-17T06:15:31.436Z,11.43
2022-11-17T06:18:00.831Z,13.90
2022-11-17T06:20:32.253Z,14.70
2022-11-17T06:23:01.075Z,11.97
2022-11-17T06:25:27.879Z,14.20
2022-11-17T06:27:54.886Z,13.43
2022-11-17T06:30:21.417Z,14.20
2022-11-17T06:32:49.973Z,12.30
2022-11-17T06:35:17.161Z,12.10
2022-11-17T06:37:43.701Z,12.40
2022-11-17T06:40:10.393Z,12.73
2022-11-17T06:42:57.082Z,12.93
2022-11-17T06:45:24.213Z,13.23
2022-11-17T06:47:52.677Z,12.47
2022-11-17T06:50:19.553Z,12.87
2022-11-17T06:52:46.109Z,13.37
2022-11-17T06:55:12.634Z,11.53
2022-11-17T06:57:39.133Z,11.70
2022-11-17T07:00:06.377Z,10.17
2022-11-17T07:02:32.921Z,11.57
2022-11-17T07:04:59.639Z,10.03
2022-11-17T07:07:26.258Z,10.20
2022-11-17T07:09:52.841Z,11.43
2022-11-17T07:12:19.354Z,11.50
2022-11-17T07:14:45.884Z,10.27
2022-11-17T07:17:12.485Z,10.63
2022-11-17T07:19:38.996Z,10.13
2022-11-17T07:22:05.525Z,13.70
2022-11-17T07:24:32.050Z,10.87
2022-11-17T07:26:58.736Z,10.77
2022-11-17T07:29:25.705Z,10.20
2022-11-17T07:31:52.350Z,11.33
2022-11-17T07:34:18.996Z,13.30
2022-11-17T07:36:45.551Z,12.47
2022-11-17T07:39:15.947Z,12.17
2022-11-17T07:41:45.196Z,13.07
2022-11-17T07:44:12.316Z,12.03
2022-11-17T07:46:38.852Z,11.50
2022-11-17T07:49:05.379Z,12.53
2022-11-17T07:51:31.893Z,11.97
2022-11-17T07:53:58.447Z,11.27
2022-11-17T07:56:24.984Z,10.43
2022-11-17T07:58:53.410Z,11.97
2022-11-17T08:01:20.068Z,11.63
2022-11-17T08:03:46.726Z,10.40
2022-11-17T08:06:13.535Z,10.57
2022-11-17T08:08:40.665Z,13.60
2022-11-17T08:11:08.505Z,12.13
2022-11-17T08:13:35.655Z,11.07
2022-11-17T08:16:02.463Z,11.60
2022-11-17T08:18:29.283Z,12.87
2022-11-17T08:21:05.676Z,13.23
2022-11-17T08:23:32.653Z,11.67
2022-11-17T08:25:59.304Z,10.93
2022-11-17T08:28:25.881Z,10.83
2022-11-17T08:30:52.418Z,10.80
2022-11-17T08:33:19.049Z,12.80
2022-11-17T08:35:45.573Z,12.60
2022-11-17T08:38:12.342Z,10.73
2022-11-17T08:40:38.948Z,10.00
2022-11-17T08:43:05.537Z,12.67
2022-11-17T08:45:32.139Z,10.93
2022-11-17T08:47:58.898Z,10.77
2022-11-17T08:50:25.511Z,10.30
2022-11-17T08:52:52.598Z,11.67
2022-11-17T08:55:19.182Z,10.93
2022-11-17T08:57:45.757Z,10.30
2022-11-17T09:00:12.501Z,10.30
2022-11-17T09:02:39.062Z,9.90
2022-11-17T09:05:05.946Z,10.50
2022-11-17T09:07:34.939Z,9.80
2022-11-17T09:10:01.889Z,9.83
2022-11-17T09:12:28.415Z,10.07
2022-11-17T09:14:54.979Z,9.57
2022-11-17T09:17:21.518Z,9.37
2022-11-17T09:19:48.117Z,8.97
2022-11-17T09:22:14.679Z,9.70
2022-11-17T09:24:41.166Z,9.57
2022-11-17T09:27:08.428Z,9.10
2022-11-17T09:29:34.910Z,11.57
2022-11-17T09:32:01.839Z,10.37
2022-11-17T09:34:29.372Z,9.03
2022-11-17T09:36:56.089Z,9.43
2022-11-17T09:39:22.619Z,8.83
2022-11-17T09:41:50.373Z,9.90
2022-11-17T09:44:24.700Z,10.13
2022-11-17T09:46:57.009Z,10.70
2022-11-17T09:49:59.085Z,9.13
2022-11-17T09:52:26.111Z,9.50
2022-11-17T09:55:00.019Z,9.10
2022-11-17T09:57:35.685Z,9.93
2022-11-17T10:00:20.972Z,10.30
2022-11-17T10:02:47.850Z,9.17
2022-11-17T10:05:16.190Z,9.10
2022-11-17T10:07:47.065Z,8.60
2022-11-17T10:10:16.532Z,8.87
2022-11-17T10:12:47.701Z,9.37
2022-11-17T10:15:21.186Z,8.93
2022-11-17T10:17:47.742Z,8.20
2022-11-17T10:20:18.776Z,7.87
2022-11-17T10:22:46.193Z,7.87
2022-11-17T10:25:36.741Z,9.00
2022-11-17T10:28:03.986Z,8.13
2022-11-17T10:30:30.520Z,8.60
2022-11-17T10:32:58.288Z,8.00
2022-11-17T10:35:31.888Z,8.17
2022-11-17T10:37:59.628Z,11.10
2022-11-17T10:40:30.765Z,8.43
2022-11-17T10:43:01.813Z,10.07
2022-11-17T10:45:28.688Z,9.37
2022-11-17T10:48:07.635Z,8.10
2022-11-17T10:50:34.151Z,7.90
2022-11-17T10:53:19.656Z,7.93
2022-11-17T10:55:46.205Z,7.87
2022-11-17T10:58:22.506Z,7.90
2022-11-17T11:00:56.756Z,8.37
2022-11-17T11:03:24.853Z,7.90
2022-11-17T11:06:02.677Z,7.83
2022-11-17T11:08:35.896Z,7.10
2022-11-17T11:11:06.051Z,7.23
2022-11-17T11:13:36.721Z,7.17
2022-11-17T11:16:03.636Z,7.50
2022-11-17T11:18:31.108Z,7.27
2022-11-17T11:21:12.591Z,7.10
2022-11-17T11:23:51.259Z,7.20
2022-11-17T11:26:31.853Z,6.57
2022-11-17T11:29:03.931Z,7.20
2022-11-17T11:31:49.043Z,6.43
2022-11-17T11:34:34.039Z,6.40
2022-11-17T11:37:04.386Z,6.30
2022-11-17T11:39:40.170Z,5.90
2022-11-17T11:42:38.901Z,5.47
2022-11-17T11:45:14.401Z,6.23
2022-11-17T11:47:55.954Z,5.77
2022-11-17T11:50:24.653Z,5.40
2022-11-17T11:52:54.314Z,6.03
2022-11-17T11:55:20.912Z,5.87
2022-11-17T11:58:01.258Z,5.53
2022-11-17T12:00:27.787Z,5.70
2022-11-17T12:03:08.578Z,6.10
2022-11-17T12:05:54.150Z,5.70
2022-11-17T12:08:25.516Z,6.27
2022-11-17T12:11:00.612Z,6.00
2022-11-17T12:13:27.359Z,6.73
2022-11-17T12:16:13.805Z,9.87
2022-11-17T12:18:40.411Z,7.63
2022-11-17T12:21:13.532Z,14.77
2022-11-17T12:23:42.931Z,7.37
2022-11-17T12:26:20.217Z,6.63
2022-11-17T12:28:46.971Z,7.63
2022-11-17T12:31:25.712Z,9.00
2022-11-17T12:33:52.198Z,9.50
2022-11-17T12:36:30.040Z,9.00
2022-11-17T12:38:58.132Z,8.60
2022-11-17T12:41:43.249Z,5.47
2022-11-17T12:44:28.370Z,6.73
2022-11-17T12:47:00.781Z,9.50
2022-11-17T12:49:31.889Z,6.83
2022-11-17T12:52:00.787Z,5.60
2022-11-17T12:54:36.676Z,5.73
2022-11-17T12:57:06.893Z,6.03
2022-11-17T12:59:52.189Z,6.30
2022-11-17T13:02:25.455Z,6.00
2022-11-17T13:04:51.963Z,6.87
2022-11-17T13:07:19.872Z,6.10
2022-11-17T13:09:49.733Z,7.87
2022-11-17T13:12:21.353Z,5.50
2022-11-17T13:14:57.860Z,5.77
2022-11-17T13:17:30.605Z,5.20
2022-11-17T13:19:57.989Z,5.47
2022-11-17T13:22:24.623Z,5.10
2022-11-17T13:24:52.186Z,5.37
2022-11-17T13:27:23.669Z,5.57
2022-11-17T13:29:50.799Z,7.00
2022-11-17T13:32:17.393Z,5.73
2022-11-17T13:34:53.839Z,5.97
2022-11-17T13:37:21.870Z,6.40
2022-11-17T13:39:59.323Z,6.77
2022-11-17T13:42:26.980Z,7.50
2022-11-17T13:44:54.674Z,6.20
2022-11-17T13:47:26.303Z,5.83
2022-11-17T13:49:52.955Z,6.10
2022-11-17T13:52:40.513Z,5.67
2022-11-17T13:55:12.838Z,5.50
2022-11-17T13:57:39.352Z,5.57
2022-11-17T14:00:06.211Z,7.20
2022-11-17T14:02:35.990Z,8.40
2022-11-17T14:05:13.391Z,36.43
2022-11-17T14:07:40.575Z,6.63
2022-11-17T14:10:22.433Z,6.70
2022-11-17T14:12:49.946Z,8.57
2022-11-17T14:15:42.742Z,9.00
2022-11-17T14:18:23.088Z,7.17
2022-11-17T14:21:03.572Z,8.37
2022-11-17T14:23:30.045Z,7.93
2022-11-17T14:25:56.526Z,8.80
2022-11-17T14:28:23.441Z,7.23
2022-11-17T14:30:51.650Z,6.70
2022-11-17T14:33:18.173Z,6.57
2022-11-17T14:35:45.304Z,6.33
2022-11-17T14:38:19.101Z,6.57
2022-11-17T14:40:45.664Z,5.90
2022-11-17T14:43:12.120Z,6.60
2022-11-17T14:45:38.560Z,6.10
2022-11-17T14:48:06.118Z,6.00
2022-11-17T14:50:32.835Z,6.40
2022-11-17T14:52:59.420Z,6.00
2022-11-17T14:55:26.288Z,5.97
2022-11-17T14:57:52.902Z,6.07
2022-11-17T15:00:20.824Z,6.00
2022-11-17T15:02:48.193Z,6.13
2022-11-17T15:05:14.895Z,6.93
2022-11-17T15:07:42.319Z,7.50
2022-11-17T15:10:09.383Z,6.40
2022-11-17T15:12:36.007Z,6.37
2022-11-17T15:15:02.621Z,6.53
2022-11-17T15:17:29.158Z,10.37
2022-11-17T15:19:55.721Z,8.20
2022-11-17T15:22:22.265Z,7.53
2022-11-17T15:24:48.816Z,7.77
2022-11-17T15:27:15.328Z,6.83
2022-11-17T15:29:41.963Z,7.07
2022-11-17T16:15:05.500Z,9.03
2022-11-17T16:17:32.085Z,14.67
2022-11-17T16:19:58.722Z,16.97
2022-11-17T16:22:25.326Z,8.83
2022-11-17T16:24:51.849Z,13.87
2022-11-17T16:27:18.382Z,18.70
2022-11-17T16:29:44.891Z,15.83
2022-11-17T16:32:11.452Z,10.17
2022-11-17T16:34:40.877Z,11.97
2022-11-17T16:37:07.396Z,11.03
2022-11-17T16:39:33.986Z,8.80
2022-11-17T16:42:01.565Z,9.90
2022-11-17T16:44:28.147Z,9.00
2022-11-17T16:46:56.791Z,8.33
2022-11-17T16:49:23.336Z,9.63
2022-11-17T16:51:51.042Z,9.33
2022-11-17T16:54:18.582Z,24.27
2022-11-17T16:56:45.181Z,7.53
2022-11-17T16:59:12.139Z,7.80
2022-11-17T17:01:38.709Z,7.60
2022-11-17T17:04:06.885Z,8.00
2022-11-17T17:06:33.759Z,7.90
2022-11-17T17:09:01.458Z,7.57
2022-11-17T17:11:29.287Z,8.40
2022-11-17T17:13:58.554Z,10.17
2022-11-17T17:16:25.805Z,9.27
2022-11-17T17:18:56.223Z,9.60
2022-11-17T17:21:23.630Z,12.33
2022-11-17T17:23:50.335Z,8.97
2022-11-17T17:26:22.266Z,9.40
2022-11-17T17:28:49.949Z,9.70
2022-11-17T17:31:21.304Z,10.30
2022-11-17T17:33:48.765Z,10.80
2022-11-17T17:36:16.326Z,10.10
2022-11-17T17:38:43.044Z,8.90
2022-11-17T17:41:10.867Z,8.90
2022-11-17T17:43:37.793Z,9.80
2022-11-17T17:46:12.837Z,8.93
2022-11-17T17:48:42.541Z,8.93
2022-11-17T17:51:16.697Z,10.07
2022-11-17T17:53:43.391Z,9.70
2022-11-17T17:56:10.908Z,9.40
2022-11-17T17:58:40.680Z,9.73
2022-11-17T18:01:08.432Z,10.13
2022-11-17T18:03:35.050Z,10.07
2022-11-17T18:06:01.793Z,11.03
2022-11-17T18:08:28.427Z,10.73
2022-11-17T18:10:59.284Z,9.50
2022-11-17T18:13:29.632Z,10.17
2022-11-17T18:15:56.381Z,9.37
2022-11-17T18:18:22.855Z,10.80
2022-11-17T18:20:57.848Z,10.73
2022-11-17T18:23:24.354Z,11.77
2022-11-17T18:25:50.894Z,13.33
2022-11-17T18:28:17.407Z,12.32
2022-11-17T18:30:43.909Z,15.33
2022-11-17T18:33:10.458Z,12.73
2022-11-17T18:35:37.009Z,10.80
2022-11-17T18:38:03.530Z,16.47
2022-11-17T18:40:30.015Z,14.90
2022-11-17T18:42:59.894Z,10.43
2022-11-17T18:45:26.395Z,10.27
2022-11-17T18:47:52.957Z,15.97
2022-11-17T18:50:19.480Z,10.43
2022-11-17T18:52:46.031Z,11.40
2022-11-17T18:55:12.533Z,19.20
2022-11-17T18:57:44.601Z,16.58
2022-11-17T19:00:11.763Z,13.20
2022-11-17T19:02:38.265Z,14.33
2022-11-17T19:05:04.948Z,11.90
2022-11-17T19:07:31.955Z,12.10
2022-11-17T19:09:58.557Z,11.00
2022-11-17T19:12:25.127Z,11.40
2022-11-17T19:14:51.629Z,10.00
2022-11-17T19:17:18.269Z,12.07
2022-11-17T19:19:44.786Z,10.20
2022-11-17T19:22:11.442Z,12.40
2022-11-17T19:24:39.802Z,10.90
2022-11-17T19:27:06.310Z,15.40
2022-11-17T19:29:32.850Z,10.53
2022-11-17T19:32:00.146Z,12.27
2022-11-17T19:34:26.687Z,11.70
2022-11-17T19:36:53.259Z,16.03
2022-11-17T19:39:20.259Z,11.67
2022-11-17T19:41:47.744Z,10.80
2022-11-17T19:44:14.324Z,13.03
2022-11-17T19:46:40.894Z,16.70
2022-11-17T19:49:09.264Z,11.93
2022-11-17T19:51:37.001Z,17.87
2022-11-17T19:54:05.323Z,12.73
2022-11-17T19:56:32.219Z,19.33
2022-11-17T19:58:58.844Z,13.07
2022-11-17T20:01:26.528Z,25.53
2022-11-17T20:03:53.201Z,14.40
2022-11-17T20:06:21.316Z,16.07
2022-11-17T20:08:48.453Z,15.73
2022-11-17T20:11:14.995Z,13.10
2022-11-17T20:13:41.688Z,33.00
2022-11-17T20:16:12.447Z,18.73
2022-11-17T20:18:39.847Z,15.53
2022-11-17T20:21:07.049Z,14.27
2022-11-17T20:23:34.774Z,15.07
2022-11-17T20:26:12.370Z,16.87
2022-11-17T20:28:39.020Z,18.03
2022-11-17T20:31:09.946Z,15.60
2022-11-17T20:33:39.926Z,14.20
2022-11-17T20:36:07.948Z,18.07
2022-11-17T20:38:35.872Z,25.90
2022-11-17T20:41:02.557Z,14.23
2022-11-17T20:43:29.279Z,13.30
2022-11-17T20:45:56.543Z,13.30
2022-11-17T20:48:23.510Z,13.90
2022-11-17T20:51:06.299Z,17.80
2022-11-17T20:53:32.912Z,15.93
2022-11-17T20:56:00.283Z,14.57
2022-11-17T20:58:27.457Z,16.07
2022-11-17T21:00:54.371Z,14.77
2022-11-17T21:03:21.220Z,15.97
2022-11-17T21:05:58.363Z,13.27
2022-11-17T21:08:27.235Z,12.90
2022-11-17T21:10:54.413Z,12.30
2022-11-17T21:13:20.960Z,12.37
2022-11-17T21:15:47.540Z,12.87
2022-11-17T21:18:26.338Z,12.93
2022-11-17T21:20:55.594Z,14.60
2022-11-17T21:23:22.176Z,17.23
2022-11-17T21:25:48.722Z,23.77
2022-11-17T21:28:15.225Z,13.57
2022-11-17T21:30:41.739Z,16.53
2022-11-17T21:33:08.213Z,15.67
2022-11-17T21:35:34.737Z,15.20
2022-11-17T21:38:01.231Z,17.23
2022-11-17T21:40:27.800Z,15.50
2022-11-17T21:42:54.317Z,16.83
2022-11-17T21:45:20.867Z,14.13
2022-11-17T21:47:47.379Z,14.67
2022-11-17T21:50:13.937Z,16.63
2022-11-17T21:52:40.547Z,15.63
2022-11-17T21:55:07.419Z,16.57
2022-11-17T21:57:33.910Z,15.03
2022-11-17T22:00:00.433Z,15.30
2022-11-17T22:02:26.984Z,15.00
2022-11-17T22:04:53.490Z,13.27
2022-11-17T22:07:20.052Z,13.87
2022-11-17T22:09:46.606Z,16.47
2022-11-17T22:12:13.120Z,15.57
2022-11-17T22:14:39.643Z,14.17
2022-11-17T22:17:06.175Z,14.50
2022-11-17T22:19:33.754Z,15.13
2022-11-17T22:22:00.377Z,15.03
2022-11-17T22:24:26.956Z,14.93
2022-11-17T22:26:53.970Z,15.53
2022-11-17T22:29:21.709Z,14.75
2022-11-17T22:31:49.198Z,15.27
2022-11-17T22:34:16.287Z,17.43
2022-11-17T22:36:42.951Z,14.37
2022-11-17T22:39:09.827Z,13.73
2022-11-17T22:41:36.390Z,13.23
2022-11-17T22:44:03.535Z,14.77
2022-11-17T22:46:30.012Z,12.50
2022-11-17T22:48:56.545Z,13.60
2022-11-17T22:51:43.634Z,13.53
2022-11-17T22:54:10.208Z,15.77
2022-11-17T22:56:36.826Z,12.57
2022-11-17T22:59:03.614Z,13.50
2022-11-17T23:01:30.192Z,13.77
2022-11-17T23:03:56.706Z,13.60
2022-11-17T23:06:24.139Z,12.70
2022-11-17T23:08:50.702Z,12.77
2022-11-17T23:14:04.306Z,12.23
2022-11-17T23:16:30.898Z,11.53
2022-11-17T23:18:57.548Z,12.40
2022-11-17T23:21:24.158Z,13.57
2022-11-17T23:23:50.984Z,13.10
2022-11-17T23:26:17.564Z,13.87
2022-11-17T23:28:44.568Z,11.90
2022-11-17T23:31:12.438Z,14.00
2022-11-17T23:33:40.340Z,12.33
2022-11-17T23:36:08.386Z,11.67
2022-11-17T23:38:35.266Z,12.13
2022-11-17T23:41:02.852Z,11.77
2022-11-17T23:43:29.750Z,11.70
2022-11-17T23:45:56.733Z,12.43
2022-11-17T23:48:23.509Z,11.60
2022-11-17T23:50:50.098Z,13.20
2022-11-17T23:53:16.777Z,11.93
2022-11-17T23:55:43.792Z,11.63
2022-11-17T23:58:10.392Z,12.23
